Time;durP1;ratioP1;P1;durP2;ratioP2;P2;SDS_P1;SDS_P2;PMS_P1;PMS_P2;Temp;Humidity;BMP_temperature;BMP_pressure;BME280_temperature;BME280_humidity;BME280_pressure;Samples;Min_cycle;Max_cycle;Signal;HPM_P1;HPM_P2
2022/12/15 00:40:57;;;;;;;;;;;;;;;;;;5113885;28;1318;-39
2022/12/15 00:43:26;;;;;;;;;;;;;;;;;;5113733;28;1906;-38
2022/12/15 00:48:40;;;;;;;;;;;;;;;;;;5113462;28;1673;-39
2022/12/15 00:51:07;;;;;;;;;;;;;;;;;;5113512;28;1742;-39
2022/12/15 01:21:15;;;;;;;;;;;;;;;;;;5113119;28;1688;-39
2022/12/15 01:23:42;;;;;;;;;;;;;;;;;;5112161;28;1914;-39
2022/12/15 01:26:09;;;;;;;;;;;;;;;;;;5112457;28;1020;-39
2022/12/15 01:28:36;;;;;;;;;;;;;;;;;;5112730;28;1448;-39
2022/12/15 01:31:10;;;;;;;;;;;;;;;;;;5112803;28;2123;-40
2022/12/15 01:33:38;;;;;;;;;;;;;;;;;;5112495;28;1871;-39
2022/12/15 01:36:06;;;;;;;;;;;;;;;;;;5112597;28;1706;-39
2022/12/15 01:38:33;;;;;;;;;;;;;;;;;;5112600;28;1659;-40
2022/12/15 01:41:01;;;;;;;;;;;;;;;;;;5112461;28;1906;-39
2022/12/15 01:43:30;;;;;;;;;;;;;;;;;;5112247;28;1908;-39
2022/12/15 01:46:07;;;;;;;;;;;;;;;;;;5112459;28;1698;-40
2022/12/15 01:48:35;;;;;;;;;;;;;;;;;;5112231;28;1985;-39
2022/12/15 01:51:10;;;;;;;;;;;;;;;;;;5112401;28;1783;-39
2022/12/15 01:53:47;;;;;;;;;;;;;;;;;;5112321;28;1794;-40
2022/12/15 01:56:16;;;;;;;;;;;;;;;;;;5112068;28;2095;-39
2022/12/15 01:58:44;;;;;;;;;;;;;;;;;;5112145;28;1541;-39
2022/12/15 02:01:11;;;;;;;;;;;;;;;;;;5111757;28;1704;-39
2022/12/15 02:03:40;;;;;;;;;;;;;;;;;;5093693;28;1910;-39
2022/12/15 02:06:08;;;;;;;;;;;;;;;;;;5112030;28;1776;-39
2022/12/15 02:08:35;;;;;;;;;;;;;;;;;;5111902;28;1788;-39
2022/12/15 02:11:07;;;;;;;;;;;;;;;;;;5112249;28;1898;-39
2022/12/15 02:13:38;;;;;;;;;;;;;;;;;;5111587;28;2103;-39
2022/12/15 02:16:28;;;;;;;;;;;;;;;;;;5111880;28;1995;-39
2022/12/15 02:18:59;;;;;;;;;;;;;;;;;;5074117;28;2158;-39
2022/12/15 02:21:35;;;;;;;;;;;;;;;;;;5111885;28;1417;-39
2022/12/15 02:24:05;;;;;;;;;;;;;;;;;;5111615;28;1900;-39
2022/12/15 02:26:50;;;;;;;;;;;;;;;;;;5111568;28;1423;-39
2022/12/15 02:29:20;;;;;;;;;;;;;;;;;;5111614;28;1068;-39
2022/12/15 02:31:50;;;;;;;;;;;;;;;;;;5111535;28;1255;-40
2022/12/15 02:34:30;;;;;;;;;;;;;;;;;;5110847;28;1575;-39
2022/12/15 02:36:58;;;;;;;;;;;;;;;;;;5111706;28;1768;-39
2022/12/15 02:39:25;;;;;;;;;;;;;;;;;;5111634;28;1919;-40
2022/12/15 02:41:56;;;;;;;;;;;;;;;;;;5111475;28;1638;-40
2022/12/15 02:44:23;;;;;;;;;;;;;;;;;;5092924;28;1932;-38
2022/12/15 02:46:58;;;;;;;;;;;;;;;;;;5111588;28;1556;-40
2022/12/15 02:49:31;;;;;;;;;;;;;;;;;;5111696;28;1946;-39
2022/12/15 02:52:09;;;;;;;;;;;;;;;;;;5111358;28;1992;-40
2022/12/15 02:54:39;;;;;;;;;;;;;;;;;;5111340;28;1399;-40
2022/12/15 02:57:15;;;;;;;;;;;;;;;;;;5111354;28;1709;-40
2022/12/15 02:59:42;;;;;;;;;;;;;;;;;;5103254;28;1645;-40
2022/12/15 03:02:11;;;;;;;;;;;;;;;;;;5090751;28;1362;-39
2022/12/15 03:04:38;;;;;;;;;;;;;;;;;;5091002;28;2174;-40
2022/12/15 03:07:07;;;;;;;;;;;;;;;;;;5090713;28;2003;-40
2022/12/15 03:09:35;;;;;;;;;;;;;;;;;;5090931;28;1692;-38
2022/12/15 03:12:02;;;;;;;;;;;;;;;;;;5090799;28;1680;-39
2022/12/15 03:14:29;;;;;;;;;;;;;;;;;;5091122;28;1960;-39
2022/12/15 03:16:56;;;;;;;;;;;;;;;;;;5080300;28;1525;-39
2022/12/15 03:19:23;;;;;;;;;;;;;;;;;;5091081;28;1712;-39
2022/12/15 03:21:50;;;;;;;;;;;;;;;;;;5110560;28;1974;-39
2022/12/15 03:24:18;;;;;;;;;;;;;;;;;;5110830;28;1902;-40
2022/12/15 03:26:48;;;;;;;;;;;;;;;;;;5111330;28;2041;-39
2022/12/15 03:29:17;;;;;;;;;;;;;;;;;;5111211;28;1862;-40
2022/12/15 03:31:44;;;;;;;;;;;;;;;;;;5110859;28;1582;-40
2022/12/15 03:34:11;;;;;;;;;;;;;;;;;;5111010;28;1832;-40
2022/12/15 03:36:38;;;;;;;;;;;;;;;;;;5111319;28;1812;-40
2022/12/15 03:39:06;;;;;;;;;;;;;;;;;;5110771;28;1633;-39
2022/12/15 03:41:33;;;;;;;;;;;;;;;;;;5110809;28;1573;-40
2022/12/15 03:44:00;;;;;;;;;;;;;;;;;;5110716;28;2119;-40
2022/12/15 03:46:27;;;;;;;;;;;;;;;;;;5113138;28;1580;-39
2022/12/15 03:48:54;;;;;;;;;;;;;;;;;;5099626;28;1250;-40
2022/12/15 03:51:21;;;;;;;;;;;;;;;;;;5094255;28;1560;-40
2022/12/15 03:53:48;;;;;;;;;;;;;;;;;;5094208;28;1571;-39
2022/12/15 03:56:17;;;;;;;;;;;;;;;;;;5094176;28;1526;-40
2022/12/15 03:58:44;;;;;;;;;;;;;;;;;;5094117;28;1254;-41
2022/12/15 04:01:31;;;;;;;;;;;;;;;;;;5094234;28;1698;-39
2022/12/15 04:03:59;;;;;;;;;;;;;;;;;;5093800;28;1981;-40
2022/12/15 04:06:33;;;;;;;;;;;;;;;;;;5093842;28;1347;-39
2022/12/15 04:09:00;;;;;;;;;;;;;;;;;;5093918;28;1647;-39
2022/12/15 04:11:27;;;;;;;;;;;;;;;;;;5090718;28;1714;-39
2022/12/15 04:13:54;;;;;;;;;;;;;;;;;;5093995;28;1358;-38
2022/12/15 04:16:22;;;;;;;;;;;;;;;;;;5094035;28;1065;-39
2022/12/15 04:20:07;;;;;;;;;;;;;;;;;;5093719;28;1673;-39
2022/12/15 04:21:36;;;;;;;;;;;;;;;;;;5111684;28;1670;-39
2022/12/15 05:33:07;;;;;;;;;;;;;;;;;;5074111;28;1834;-40
2022/12/15 05:35:34;;;;;;;;;;;;;;;;;;5091864;28;1894;-40
2022/12/15 05:38:03;;;;;;;;;;;;;;;;;;5092127;28;1223;-40
2022/12/15 05:40:30;;;;;;;;;;;;;;;;;;5092024;28;2270;-39
2022/12/15 05:42:58;;;;;;;;;;;;;;;;;;5091913;28;1882;-40
2022/12/15 05:45:26;;;;;;;;;;;;;;;;;;5095545;28;1906;-40
2022/12/15 05:47:53;;;;;;;;;;;;;;;;;;5112420;28;1554;-40
2022/12/15 05:50:21;;;;;;;;;;;;;;;;;;5112774;28;2060;-39
2022/12/15 05:52:48;;;;;;;;;;;;;;;;;;5112308;28;2031;-39
2022/12/15 05:55:16;;;;;;;;;;;;;;;;;;5112384;28;1791;-38
2022/12/15 05:57:44;;;;;;;;;;;;;;;;;;5112246;28;1655;-39
2022/12/15 06:00:11;;;;;;;;;;;;;;;;;;5112148;28;1511;-40
2022/12/15 06:02:38;;;;;;;;;;;;;;;;;;5112226;28;1447;-39
2022/12/15 06:05:05;;;;;;;;;;;;;;;;;;5111539;28;1968;-39
2022/12/15 06:07:33;;;;;;;;;;;;;;;;;;5094215;28;1326;-39
2022/12/15 06:10:00;;;;;;;;;;;;;;;;;;5111688;28;1336;-39
2022/12/15 06:12:28;;;;;;;;;;;;;;;;;;5112438;28;1728;-40
2022/12/15 06:14:54;;;;;;;;;;;;;;;;;;5112126;28;1591;-39
2022/12/15 06:17:22;;;;;;;;;;;;;;;;;;5112554;28;1521;-40
2022/12/15 06:19:49;;;;;;;;;;;;;;;;;;5111705;28;1463;-39
2022/12/15 06:22:16;;;;;;;;;;;;;;;;;;5111867;28;1936;-40
2022/12/15 06:24:43;;;;;;;;;;;;;;;;;;5111509;28;1910;-39
2022/12/15 06:27:10;;;;;;;;;;;;;;;;;;5111635;28;1440;-39
2022/12/15 06:29:37;;;;;;;;;;;;;;;;;;5111873;28;1040;-40
2022/12/15 06:32:04;;;;;;;;;;;;;;;;;;5111407;28;1988;-39
2022/12/15 06:34:31;;;;;;;;;;;;;;;;;;5111728;28;1681;-39
2022/12/15 06:36:58;;;;;;;;;;;;;;;;;;5111472;28;1706;-40
2022/12/15 06:39:25;;;;;;;;;;;;;;;;;;5112038;28;1304;-39
2022/12/15 06:41:52;;;;;;;;;;;;;;;;;;5111991;28;2302;-39
2022/12/15 06:44:20;;;;;;;;;;;;;;;;;;5111227;28;1969;-40
2022/12/15 06:46:47;;;;;;;;;;;;;;;;;;5111406;28;1247;-40
2022/12/15 06:49:14;;;;;;;;;;;;;;;;;;5111150;28;1348;-39
2022/12/15 06:51:43;;;;;;;;;;;;;;;;;;5111345;28;1896;-39
2022/12/15 06:54:11;;;;;;;;;;;;;;;;;;5111343;28;1413;-39
2022/12/15 06:56:38;;;;;;;;;;;;;;;;;;5111418;28;1866;-40
2022/12/15 06:59:06;;;;;;;;;;;;;;;;;;5111214;28;1703;-39
2022/12/15 07:01:33;;;;;;;;;;;;;;;;;;5111319;28;1923;-38
2022/12/15 07:04:04;;;;;;;;;;;;;;;;;;5111431;28;1981;-39
2022/12/15 07:06:35;;;;;;;;;;;;;;;;;;5111135;28;1235;-39
2022/12/15 07:09:03;;;;;;;;;;;;;;;;;;5111381;28;1621;-39
2022/12/15 07:11:30;;;;;;;;;;;;;;;;;;5111595;28;1659;-40
2022/12/15 07:13:57;;;;;;;;;;;;;;;;;;5111143;28;1468;-40
2022/12/15 07:16:24;;;;;;;;;;;;;;;;;;5111247;28;1958;-39
2022/12/15 07:18:51;;;;;;;;;;;;;;;;;;5111287;28;1353;-39
2022/12/15 07:21:18;;;;;;;;;;;;;;;;;;5113184;28;2064;-40
2022/12/15 07:23:45;;;;;;;;;;;;;;;;;;5115396;28;1314;-38
2022/12/15 07:26:20;;;;;;;;;;;;;;;;;;5114525;28;1995;-40
2022/12/15 07:28:47;;;;;;;;;;;;;;;;;;5115006;28;1704;-39
2022/12/15 07:31:14;;;;;;;;;;;;;;;;;;5096932;28;1845;-39
2022/12/15 07:33:41;;;;;;;;;;;;;;;;;;5114973;28;1839;-40
2022/12/15 07:36:09;;;;;;;;;;;;;;;;;;5114933;28;1809;-39
2022/12/15 07:38:37;;;;;;;;;;;;;;;;;;5114850;28;1287;-40
2022/12/15 07:41:05;;;;;;;;;;;;;;;;;;5114684;28;1616;-39
2022/12/15 07:43:33;;;;;;;;;;;;;;;;;;5115103;28;1472;-39
2022/12/15 07:46:02;;;;;;;;;;;;;;;;;;5114606;28;1905;-39
2022/12/15 07:48:29;;;;;;;;;;;;;;;;;;5096324;28;1757;-40
2022/12/15 07:50:57;;;;;;;;;;;;;;;;;;5114947;28;1476;-39
2022/12/15 07:53:33;;;;;;;;;;;;;;;;;;5114589;28;1815;-39
2022/12/15 07:56:01;;;;;;;;;;;;;;;;;;5114351;28;1389;-38
2022/12/15 07:58:34;;;;;;;;;;;;;;;;;;5114233;28;1601;-40
2022/12/15 08:01:02;;;;;;;;;;;;;;;;;;5114543;28;1846;-39
2022/12/15 08:03:30;;;;;;;;;;;;;;;;;;5114334;28;2047;-39
2022/12/15 08:05:57;;;;;;;;;;;;;;;;;;5114298;28;1982;-39
2022/12/15 08:08:30;;;;;;;;;;;;;;;;;;5114236;28;1442;-40
2022/12/15 08:10:57;;;;;;;;;;;;;;;;;;5114410;28;1812;-38
2022/12/15 08:13:24;;;;;;;;;;;;;;;;;;5114390;28;1261;-41
2022/12/15 08:16:12;;;;;;;;;;;;;;;;;;5114118;28;1390;-39
2022/12/15 08:18:39;;;;;;;;;;;;;;;;;;5114372;28;1487;-39
2022/12/15 08:21:07;;;;;;;;;;;;;;;;;;5113969;28;1854;-38
2022/12/15 08:23:34;;;;;;;;;;;;;;;;;;5096169;28;1312;-40
2022/12/15 08:26:06;;;;;;;;;;;;;;;;;;5113909;28;1910;-39
2022/12/15 08:28:34;;;;;;;;;;;;;;;;;;5113679;28;1512;-43
2022/12/15 08:31:05;;;;;;;;;;;;;;;;;;5113954;28;1247;-39
2022/12/15 08:33:32;;;;;;;;;;;;;;;;;;5112565;28;1852;-39
2022/12/15 08:36:01;;;;;;;;;;;;;;;;;;5113701;28;1335;-38
2022/12/15 08:38:30;;;;;;;;;;;;;;;;;;5114013;28;1833;-39
2022/12/15 08:40:57;;;;;;;;;;;;;;;;;;5113898;28;1689;-39
2022/12/15 08:43:24;;;;;;;;;;;;;;;;;;5113671;28;1658;-39
2022/12/15 08:45:52;;;;;;;;;;;;;;;;;;5113353;28;1974;-39
2022/12/15 08:48:19;;;;;;;;;;;;;;;;;;5113578;28;1741;-39
2022/12/15 08:50:46;;;;;;;;;;;;;;;;;;5113778;28;2339;-39
2022/12/15 08:53:13;;;;;;;;;;;;;;;;;;5113121;28;1857;-39
2022/12/15 08:56:06;;;;;;;;;;;;;;;;;;5113415;28;1517;-42
2022/12/15 08:58:33;;;;;;;;;;;;;;;;;;5113285;28;1304;-39
2022/12/15 09:01:01;;;;;;;;;;;;;;;;;;5113204;28;1918;-40
2022/12/15 09:03:28;;;;;;;;;;;;;;;;;;5113374;28;1093;-40
2022/12/15 09:06:00;;;;;;;;;;;;;;;;;;5112865;28;1972;-39
2022/12/15 09:08:29;;;;;;;;;;;;;;;;;;5113683;28;1843;-38
2022/12/15 09:10:58;;;;;;;;;;;;;;;;;;5113159;28;1676;-39
2022/12/15 09:13:26;;;;;;;;;;;;;;;;;;5112998;28;1810;-40
2022/12/15 09:16:01;;;;;;;;;;;;;;;;;;5112850;28;1515;-38
2022/12/15 09:18:37;;;;;;;;;;;;;;;;;;5113006;28;1760;-41
2022/12/15 09:21:05;;;;;;;;;;;;;;;;;;5112908;28;1741;-39
2022/12/15 09:23:34;;;;;;;;;;;;;;;;;;5112894;28;1831;-40
2022/12/15 09:26:05;;;;;;;;;;;;;;;;;;5112890;28;2187;-40
2022/12/15 09:28:33;;;;;;;;;;;;;;;;;;5112943;28;1969;-40
2022/12/15 09:31:03;;;;;;;;;;;;;;;;;;5112632;28;1720;-38
2022/12/15 09:33:30;;;;;;;;;;;;;;;;;;5112461;28;1384;-40
2022/12/15 09:35:58;;;;;;;;;;;;;;;;;;5112435;28;1887;-38
2022/12/15 09:38:25;;;;;;;;;;;;;;;;;;5112881;28;2081;-39
2022/12/15 09:40:52;;;;;;;;;;;;;;;;;;5112501;28;1883;-39
2022/12/15 09:43:20;;;;;;;;;;;;;;;;;;5112102;28;1666;-39
2022/12/15 09:46:16;;;;;;;;;;;;;;;;;;5094031;28;1928;-39
2022/12/15 09:48:44;;;;;;;;;;;;;;;;;;5112417;28;1788;-37
2022/12/15 09:51:13;;;;;;;;;;;;;;;;;;5112666;28;1667;-39
2022/12/15 09:53:40;;;;;;;;;;;;;;;;;;5112353;28;1756;-39
2022/12/15 09:56:27;;;;;;;;;;;;;;;;;;5112319;28;1689;-38
2022/12/15 09:59:00;;;;;;;;;;;;;;;;;;5112142;28;1650;-39
2022/12/15 10:01:41;;;;;;;;;;;;;;;;;;5112391;28;1988;-39
2022/12/15 10:04:11;;;;;;;;;;;;;;;;;;5112059;28;2058;-39
2022/12/15 10:06:59;;;;;;;;;;;;;;;;;;5111798;28;2106;-39
2022/12/15 10:09:27;;;;;;;;;;;;;;;;;;5112150;28;1440;-40
2022/12/15 10:12:13;;;;;;;;;;;;;;;;;;5112173;28;1813;-40
2022/12/15 10:14:42;;;;;;;;;;;;;;;;;;5112081;28;2045;-39
2022/12/15 10:17:24;;;;;;;;;;;;;;;;;;5111683;28;1415;-39
2022/12/15 10:19:54;;;;;;;;;;;;;;;;;;5111676;28;1832;-45
2022/12/15 10:22:23;;;;;;;;;;;;;;;;;;5111793;28;1259;-39
2022/12/15 10:24:50;;;;;;;;;;;;;;;;;;5111821;28;1913;-39
2022/12/15 10:27:52;;;;;;;;;;;;;;;;;;5111571;28;1324;-38
2022/12/15 10:30:20;;;;;;;;;;;;;;;;;;5111235;28;1939;-39
2022/12/15 10:33:00;;;;;;;;;;;;;;;;;;5093753;28;1257;-39
2022/12/15 10:35:32;;;;;;;;;;;;;;;;;;5111449;28;1815;-38
2022/12/15 10:38:02;;;;;;;;;;;;;;;;;;5111429;28;1241;-39
2022/12/15 10:40:46;;;;;;;;;;;;;;;;;;5111449;28;1878;-41
2022/12/15 10:43:26;;;;;;;;;;;;;;;;;;5111707;28;1664;-39
2022/12/15 10:46:13;;;;;;;;;;;;;;;;;;5111537;28;1913;-38
2022/12/15 10:48:42;;;;;;;;;;;;;;;;;;5111434;28;1780;-39
2022/12/15 10:51:14;;;;;;;;;;;;;;;;;;5111592;28;2025;-39
2022/12/15 10:53:45;;;;;;;;;;;;;;;;;;5111335;28;1187;-39
2022/12/15 10:56:33;;;;;;;;;;;;;;;;;;5113985;28;1519;-39
2022/12/15 10:59:20;;;;;;;;;;;;;;;;;;5115587;28;1695;-39
2022/12/15 11:01:47;;;;;;;;;;;;;;;;;;5115358;28;1849;-39
2022/12/15 11:04:26;;;;;;;;;;;;;;;;;;5115317;28;2222;-39
2022/12/15 11:07:00;;;;;;;;;;;;;;;;;;5115457;28;2126;-39
2022/12/15 11:09:35;;;;;;;;;;;;;;;;;;5115454;28;1268;-38
2022/12/15 11:15:22;;;;;;;;;;;;;;;;;;5115792;28;2218;-40
2022/12/15 11:18:01;;;;;;;;;;;;;;;;;;5115301;28;1614;-39
2022/12/15 11:20:34;;;;;;;;;;;;;;;;;;5114763;28;1658;-38
2022/12/15 11:23:04;;;;;;;;;;;;;;;;;;5114966;28;1802;-38
2022/12/15 11:25:34;;;;;;;;;;;;;;;;;;5115078;28;1907;-39
2022/12/15 11:28:03;;;;;;;;;;;;;;;;;;5114556;28;1634;-39
2022/12/15 11:30:32;;;;;;;;;;;;;;;;;;5114996;28;1340;-39
2022/12/15 11:33:00;;;;;;;;;;;;;;;;;;5115132;28;1744;-40
2022/12/15 11:35:39;;;;;;;;;;;;;;;;;;5115250;28;2000;-38
2022/12/15 11:38:20;;;;;;;;;;;;;;;;;;5114648;28;2155;-39
2022/12/15 11:40:47;;;;;;;;;;;;;;;;;;5114887;28;1652;-39
2022/12/15 11:43:22;;;;;;;;;;;;;;;;;;5114507;28;1920;-39
2022/12/15 11:46:07;;;;;;;;;;;;;;;;;;5114891;28;1969;-40
2022/12/15 11:48:48;;;;;;;;;;;;;;;;;;5114663;28;1657;-39
2022/12/15 11:51:35;;;;;;;;;;;;;;;;;;5114612;28;1384;-39
2022/12/15 11:54:26;;;;;;;;;;;;;;;;;;5096806;28;1335;-40
2022/12/15 11:57:20;;;;;;;;;;;;;;;;;;5110183;28;1967;-38
2022/12/15 11:59:47;;;;;;;;;;;;;;;;;;5050394;28;1785;-39
2022/12/15 12:02:33;;;;;;;;;;;;;;;;;;5111850;28;1875;-40
2022/12/15 12:05:19;;;;;;;;;;;;;;;;;;5095813;28;1803;-39
2022/12/15 12:07:48;;;;;;;;;;;;;;;;;;5072616;28;1600;-39
2022/12/15 12:10:30;;;;;;;;;;;;;;;;;;5053398;28;1278;-39
2022/12/15 12:13:15;;;;;;;;;;;;;;;;;;5073088;28;1765;-38
2022/12/15 12:15:48;;;;;;;;;;;;;;;;;;5073543;28;1646;-38
2022/12/15 12:18:26;;;;;;;;;;;;;;;;;;5071451;28;2047;-39
2022/12/15 12:20:59;;;;;;;;;;;;;;;;;;5066697;28;1589;-39
2022/12/15 12:23:34;;;;;;;;;;;;;;;;;;5073135;28;1493;-39
2022/12/15 12:26:08;;;;;;;;;;;;;;;;;;5072716;28;2049;-38
2022/12/15 12:28:44;;;;;;;;;;;;;;;;;;5073139;28;1834;-40
2022/12/15 12:31:18;;;;;;;;;;;;;;;;;;5072611;28;1764;-38
2022/12/15 12:33:48;;;;;;;;;;;;;;;;;;5072095;28;1698;-38
2022/12/15 12:36:15;;;;;;;;;;;;;;;;;;5073377;28;1267;-39
2022/12/15 12:38:54;;;;;;;;;;;;;;;;;;5073385;28;1540;-39
2022/12/15 12:41:22;;;;;;;;;;;;;;;;;;5073331;28;1916;-39
2022/12/15 12:43:54;;;;;;;;;;;;;;;;;;5073074;28;1219;-39
2022/12/15 12:46:42;;;;;;;;;;;;;;;;;;5073348;28;1949;-39
2022/12/15 12:49:29;;;;;;;;;;;;;;;;;;5072769;28;2166;-39
2022/12/15 12:51:58;;;;;;;;;;;;;;;;;;5073167;28;1209;-39
2022/12/15 12:54:34;;;;;;;;;;;;;;;;;;5072803;28;1850;-38
2022/12/15 12:57:10;;;;;;;;;;;;;;;;;;5072685;28;1090;-39
2022/12/15 12:59:47;;;;;;;;;;;;;;;;;;5072478;28;1611;-39
2022/12/15 13:02:20;;;;;;;;;;;;;;;;;;5072819;28;1467;-39
2022/12/15 13:04:59;;;;;;;;;;;;;;;;;;5072717;28;2331;-39
2022/12/15 13:07:29;;;;;;;;;;;;;;;;;;5112733;28;1989;-38
2022/12/15 13:10:08;;;;;;;;;;;;;;;;;;5113149;28;2157;-39
2022/12/15 13:12:47;;;;;;;;;;;;;;;;;;5113132;28;1363;-39
2022/12/15 13:15:26;;;;;;;;;;;;;;;;;;5112993;28;2127;-39
2022/12/15 13:17:55;;;;;;;;;;;;;;;;;;5112522;28;1950;-39
2022/12/15 13:20:32;;;;;;;;;;;;;;;;;;5112856;28;1492;-39
2022/12/15 13:23:18;;;;;;;;;;;;;;;;;;5112963;28;2164;-39
2022/12/15 13:26:05;;;;;;;;;;;;;;;;;;5112749;28;1984;-39
2022/12/15 13:28:35;;;;;;;;;;;;;;;;;;5112496;28;1982;-39
2022/12/15 13:31:17;;;;;;;;;;;;;;;;;;5112604;28;2043;-39
2022/12/15 13:33:48;;;;;;;;;;;;;;;;;;5112812;28;1044;-38
2022/12/15 13:36:33;;;;;;;;;;;;;;;;;;5112637;28;1446;-39
2022/12/15 13:39:01;;;;;;;;;;;;;;;;;;5112884;28;1492;-38
2022/12/15 13:41:29;;;;;;;;;;;;;;;;;;5112472;28;1649;-42
2022/12/15 13:43:57;;;;;;;;;;;;;;;;;;5112438;28;1167;-39
2022/12/15 13:46:25;;;;;;;;;;;;;;;;;;5094323;28;1902;-39
2022/12/15 13:49:03;;;;;;;;;;;;;;;;;;5112583;28;2264;-38
2022/12/15 13:51:32;;;;;;;;;;;;;;;;;;5112582;28;1653;-39
2022/12/15 13:54:02;;;;;;;;;;;;;;;;;;5112516;28;1375;-39
2022/12/15 13:56:35;;;;;;;;;;;;;;;;;;5112356;28;2323;-38
2022/12/15 13:59:14;;;;;;;;;;;;;;;;;;5112292;28;1563;-39
2022/12/15 14:01:48;;;;;;;;;;;;;;;;;;5112218;28;1816;-39
2022/12/15 14:04:17;;;;;;;;;;;;;;;;;;5111760;28;1844;-39
2022/12/15 14:06:49;;;;;;;;;;;;;;;;;;5111846;28;1976;-38
2022/12/15 14:09:20;;;;;;;;;;;;;;;;;;5111844;28;1829;-40
2022/12/15 14:11:47;;;;;;;;;;;;;;;;;;5112075;28;1944;-39
2022/12/15 14:14:24;;;;;;;;;;;;;;;;;;5111710;28;1596;-39
2022/12/15 14:16:53;;;;;;;;;;;;;;;;;;5107891;28;2199;-39
2022/12/15 14:19:21;;;;;;;;;;;;;;;;;;5090616;28;1927;-37
2022/12/15 14:21:55;;;;;;;;;;;;;;;;;;5091475;28;1654;-45
2022/12/15 14:24:30;;;;;;;;;;;;;;;;;;5091137;28;1888;-40
2022/12/15 14:27:06;;;;;;;;;;;;;;;;;;5090982;28;1973;-37
2022/12/15 14:29:33;;;;;;;;;;;;;;;;;;5090376;28;1694;-37
2022/12/15 14:32:01;;;;;;;;;;;;;;;;;;5091488;28;1706;-36
2022/12/15 14:34:35;;;;;;;;;;;;;;;;;;5091602;28;1626;-42
2022/12/15 14:37:06;;;;;;;;;;;;;;;;;;5094779;28;1532;-38
2022/12/15 14:39:34;;;;;;;;;;;;;;;;;;5111423;28;1643;-38
2022/12/15 14:42:03;;;;;;;;;;;;;;;;;;5111674;28;1819;-38
2022/12/15 14:44:32;;;;;;;;;;;;;;;;;;5111548;28;1522;-36
2022/12/15 14:47:05;;;;;;;;;;;;;;;;;;5110821;28;1930;-37
2022/12/15 14:49:41;;;;;;;;;;;;;;;;;;5093167;28;2167;-37
2022/12/15 14:52:21;;;;;;;;;;;;;;;;;;5110720;28;1421;-42
2022/12/15 14:54:54;;;;;;;;;;;;;;;;;;5111392;28;1342;-39
2022/12/15 14:57:26;;;;;;;;;;;;;;;;;;5111859;28;2026;-39
2022/12/15 14:59:53;;;;;;;;;;;;;;;;;;5111525;28;1969;-48
2022/12/15 15:02:27;;;;;;;;;;;;;;;;;;5111335;28;1720;-39
2022/12/15 15:04:59;;;;;;;;;;;;;;;;;;5089165;28;1455;-47
2022/12/15 15:07:27;;;;;;;;;;;;;;;;;;5093888;28;1995;-39
2022/12/15 15:09:54;;;;;;;;;;;;;;;;;;5109597;28;1418;-39
2022/12/15 15:12:42;;;;;;;;;;;;;;;;;;5092992;28;2381;-40
2022/12/15 15:15:16;;;;;;;;;;;;;;;;;;5110841;28;1548;-39
2022/12/15 15:17:46;;;;;;;;;;;;;;;;;;5111259;28;2162;-39
2022/12/15 15:20:27;;;;;;;;;;;;;;;;;;5111377;28;934;-39
2022/12/15 15:23:12;;;;;;;;;;;;;;;;;;5111062;28;1722;-40
2022/12/15 15:25:41;;;;;;;;;;;;;;;;;;5110968;28;1366;-40
2022/12/15 15:28:14;;;;;;;;;;;;;;;;;;5111188;28;1914;-38
2022/12/15 15:30:45;;;;;;;;;;;;;;;;;;5111119;28;1552;-40
2022/12/15 15:33:14;;;;;;;;;;;;;;;;;;5110605;28;1265;-40
2022/12/15 15:35:43;;;;;;;;;;;;;;;;;;5110655;28;1553;-39
2022/12/15 15:38:27;;;;;;;;;;;;;;;;;;5092820;28;2156;-38
2022/12/15 15:40:56;;;;;;;;;;;;;;;;;;5111111;28;1409;-40
2022/12/15 15:43:24;;;;;;;;;;;;;;;;;;5114442;28;1842;-39
2022/12/15 15:46:11;;;;;;;;;;;;;;;;;;5114784;28;1292;-39
2022/12/15 15:48:42;;;;;;;;;;;;;;;;;;5097479;28;1421;-38
2022/12/15 15:51:10;;;;;;;;;;;;;;;;;;5114574;28;1560;-40
2022/12/15 15:53:40;;;;;;;;;;;;;;;;;;5102926;28;1602;-40
2022/12/15 15:56:09;;;;;;;;;;;;;;;;;;5094140;28;2108;-40
2022/12/15 15:58:36;;;;;;;;;;;;;;;;;;5081617;28;1591;-40
2022/12/15 16:01:03;;;;;;;;;;;;;;;;;;5099352;28;1939;-43
2022/12/15 16:03:37;;;;;;;;;;;;;;;;;;5094200;28;1677;-40
2022/12/15 16:06:05;;;;;;;;;;;;;;;;;;5093980;28;1493;-40
2022/12/15 16:08:34;;;;;;;;;;;;;;;;;;5094053;28;1902;-40
2022/12/15 16:11:01;;;;;;;;;;;;;;;;;;5094207;28;2224;-41
2022/12/15 16:13:28;;;;;;;;;;;;;;;;;;5095462;28;1781;-42
2022/12/15 16:15:55;;;;;;;;;;;;;;;;;;5114045;28;1449;-37
2022/12/15 16:18:23;;;;;;;;;;;;;;;;;;5111373;28;1188;-40
2022/12/15 16:20:50;;;;;;;;;;;;;;;;;;5108208;28;2030;-36
2022/12/15 16:23:20;;;;;;;;;;;;;;;;;;5095724;28;2224;-40
2022/12/15 16:25:49;;;;;;;;;;;;;;;;;;5113753;28;2143;-39
2022/12/15 16:28:18;;;;;;;;;;;;;;;;;;5114044;28;1978;-38
2022/12/15 16:30:45;;;;;;;;;;;;;;;;;;5108182;28;1638;-40
2022/12/15 16:33:13;;;;;;;;;;;;;;;;;;5098535;28;1954;-39
2022/12/15 16:35:41;;;;;;;;;;;;;;;;;;5093463;28;2073;-42
2022/12/15 16:38:27;;;;;;;;;;;;;;;;;;5093391;28;1542;-38
2022/12/15 16:40:55;;;;;;;;;;;;;;;;;;5093485;28;1758;-38
2022/12/15 16:43:23;;;;;;;;;;;;;;;;;;5113189;28;1731;-39
2022/12/15 16:45:51;;;;;;;;;;;;;;;;;;5114110;28;1614;-39
2022/12/15 16:48:18;;;;;;;;;;;;;;;;;;5113571;28;1907;-39
2022/12/15 16:50:50;;;;;;;;;;;;;;;;;;5113788;28;2079;-38
2022/12/15 16:53:22;;;;;;;;;;;;;;;;;;5112471;28;1474;-39
2022/12/15 16:55:59;;;;;;;;;;;;;;;;;;5112140;28;1782;-38
2022/12/15 16:58:27;;;;;;;;;;;;;;;;;;5112333;28;1362;-38
2022/12/15 17:00:54;;;;;;;;;;;;;;;;;;5113884;28;1825;-38
2022/12/15 17:03:24;;;;;;;;;;;;;;;;;;5113136;28;2150;-39
2022/12/15 17:05:56;;;;;;;;;;;;;;;;;;5111742;28;2058;-39
2022/12/15 17:08:33;;;;;;;;;;;;;;;;;;5113222;28;1915;-39
2022/12/15 17:11:00;;;;;;;;;;;;;;;;;;5113482;28;2323;-38
2022/12/15 17:13:29;;;;;;;;;;;;;;;;;;5112565;28;1773;-39
2022/12/15 17:16:04;;;;;;;;;;;;;;;;;;5113016;28;1458;-39
2022/12/15 17:18:32;;;;;;;;;;;;;;;;;;5113353;28;1488;-40
2022/12/15 17:21:17;;;;;;;;;;;;;;;;;;5113394;28;1519;-39
2022/12/15 17:23:46;;;;;;;;;;;;;;;;;;5112981;28;1584;-40
2022/12/15 17:26:25;;;;;;;;;;;;;;;;;;5112626;28;1354;-38
2022/12/15 17:28:57;;;;;;;;;;;;;;;;;;5112783;28;1903;-38
2022/12/15 17:31:25;;;;;;;;;;;;;;;;;;5112889;28;1432;-38
2022/12/15 17:33:58;;;;;;;;;;;;;;;;;;5112915;28;2073;-38
2022/12/15 17:36:26;;;;;;;;;;;;;;;;;;5112568;28;1904;-38
2022/12/15 17:38:57;;;;;;;;;;;;;;;;;;5112615;28;1634;-40
2022/12/15 17:41:24;;;;;;;;;;;;;;;;;;5112536;28;1863;-42
2022/12/15 17:44:21;;;;;;;;;;;;;;;;;;5112501;28;2026;-38
2022/12/15 17:47:06;;;;;;;;;;;;;;;;;;5112369;28;1903;-38
2022/12/15 17:49:34;;;;;;;;;;;;;;;;;;5112615;28;1422;-39
2022/12/15 17:52:25;;;;;;;;;;;;;;;;;;5112296;28;1607;-38
2022/12/15 17:54:52;;;;;;;;;;;;;;;;;;5112285;28;1748;-39
2022/12/15 17:57:19;;;;;;;;;;;;;;;;;;5112257;28;1505;-39
2022/12/15 17:59:46;;;;;;;;;;;;;;;;;;5112151;28;1811;-39
2022/12/15 18:02:14;;;;;;;;;;;;;;;;;;5112307;28;1886;-40
2022/12/15 18:04:41;;;;;;;;;;;;;;;;;;5111960;28;2105;-39
2022/12/15 18:07:12;;;;;;;;;;;;;;;;;;5112038;28;1922;-39
2022/12/15 18:09:40;;;;;;;;;;;;;;;;;;5112226;28;1613;-39
2022/12/15 18:12:26;;;;;;;;;;;;;;;;;;5112093;28;1606;-38
2022/12/15 18:14:54;;;;;;;;;;;;;;;;;;5112084;28;2040;-40
2022/12/15 18:17:21;;;;;;;;;;;;;;;;;;5112096;28;1689;-41
2022/12/15 18:19:48;;;;;;;;;;;;;;;;;;5112053;28;1556;-39
2022/12/15 18:22:20;;;;;;;;;;;;;;;;;;5094009;28;2298;-39
2022/12/15 18:24:49;;;;;;;;;;;;;;;;;;5111680;28;1365;-40
2022/12/15 18:27:23;;;;;;;;;;;;;;;;;;5111872;28;1982;-40
2022/12/15 18:29:51;;;;;;;;;;;;;;;;;;5111888;28;1412;-40
2022/12/15 18:32:20;;;;;;;;;;;;;;;;;;5111976;28;2213;-38
2022/12/15 18:34:47;;;;;;;;;;;;;;;;;;5111729;28;1255;-40
2022/12/15 18:37:15;;;;;;;;;;;;;;;;;;5111536;28;1866;-39
2022/12/15 18:39:43;;;;;;;;;;;;;;;;;;5111713;28;1321;-41
2022/12/15 18:42:18;;;;;;;;;;;;;;;;;;5111697;28;1796;-39
2022/12/15 18:44:49;;;;;;;;;;;;;;;;;;5111653;28;1567;-39
2022/12/15 18:47:17;;;;;;;;;;;;;;;;;;5111403;28;1904;-39
2022/12/15 18:49:44;;;;;;;;;;;;;;;;;;5111480;28;1921;-39
2022/12/15 18:52:16;;;;;;;;;;;;;;;;;;5111804;28;1492;-38
2022/12/15 18:54:43;;;;;;;;;;;;;;;;;;5111440;28;1530;-38
2022/12/15 18:57:20;;;;;;;;;;;;;;;;;;5111595;28;1572;-39
2022/12/15 18:59:47;;;;;;;;;;;;;;;;;;5111403;28;1594;-39
2022/12/15 19:02:14;;;;;;;;;;;;;;;;;;5111102;28;1776;-48
2022/12/15 19:04:41;;;;;;;;;;;;;;;;;;5111219;28;1335;-40
2022/12/15 19:07:10;;;;;;;;;;;;;;;;;;5111102;28;2012;-38
2022/12/15 19:09:37;;;;;;;;;;;;;;;;;;5111482;28;1815;-40
2022/12/15 19:12:17;;;;;;;;;;;;;;;;;;5111233;28;1582;-40
2022/12/15 19:14:45;;;;;;;;;;;;;;;;;;5110057;28;1392;-46
2022/12/15 19:22:55;;;;;;;;;;;;;;;;;;5115186;28;1641;-39
2022/12/15 19:25:25;;;;;;;;;;;;;;;;;;5115255;28;1945;-40
2022/12/15 19:27:57;;;;;;;;;;;;;;;;;;5115329;28;1910;-39
2022/12/15 19:30:29;;;;;;;;;;;;;;;;;;5115287;28;1375;-38
2022/12/15 19:32:56;;;;;;;;;;;;;;;;;;5115126;28;1588;-39
2022/12/15 19:35:24;;;;;;;;;;;;;;;;;;5115165;28;1346;-40
2022/12/15 19:37:54;;;;;;;;;;;;;;;;;;5114954;28;1826;-39
2022/12/15 19:40:23;;;;;;;;;;;;;;;;;;5115030;28;1525;-40
2022/12/15 19:42:51;;;;;;;;;;;;;;;;;;5114960;28;1801;-39
2022/12/15 19:45:20;;;;;;;;;;;;;;;;;;5115128;28;1535;-39
2022/12/15 19:47:47;;;;;;;;;;;;;;;;;;5114754;28;1908;-40
2022/12/15 19:50:19;;;;;;;;;;;;;;;;;;5114425;28;1753;-40
2022/12/15 19:52:49;;;;;;;;;;;;;;;;;;5114839;28;1458;-40
2022/12/15 19:55:22;;;;;;;;;;;;;;;;;;5114840;28;2019;-40
2022/12/15 19:57:49;;;;;;;;;;;;;;;;;;5114825;28;1786;-39
2022/12/15 20:00:20;;;;;;;;;;;;;;;;;;5114582;28;2009;-40